Ormond — D5KI5 — position and weather

sailwx.info

Track history (hours):
 
Tides and Currents Weather Stations Pressure Air Temp Water Temp Dewpoint Dewpoint Depression Visibility Wind Speed Wind Dir Waves Ship Positions

Ormond

Last reported at 2017-Nov-12 14:35 UTC. Time now 2017-Nov-19 01:26 UTC.
Position N 31°02' E 123°01'.

Length 292 m; draft 11.4 m.

Type: Cargo ship. MMSI: 636017319.

Date/timePositionNaut miles runAvg speedWind from/ knotsBaromVisibWave heightAir tempDewpointWater temp
2017-Nov-12 14:35N 31°02' E 123°01'211.2
2017-Nov-12 14:24N 31°03' E 123°03'  
2017-Nov-09 05:19N 21°36' E 114°25'51 8.5
2017-Nov-08 23:22N 21°24' E 113°32'4 9.4
2017-Nov-08 22:59N 21°23' E 113°29'5 9.4
2017-Nov-08 22:30N 21°22' E 113°24'5 9.6
2017-Nov-08 21:59N 21°21' E 113°19'5 9.8
2017-Nov-08 21:29N 21°21' E 113°13'5 9.9
2017-Nov-08 21:00N 21°20' E 113°08'5 9.9
2017-Nov-08 20:29N 21°19' E 113°03'610.0
2017-Nov-08 19:53N 21°18' E 112°56'410.1
2017-Nov-08 19:30N 21°18' E 112°52'11810.1
2017-Nov-08 07:54N 21°00' E 110°48'3 8.3
2017-Nov-08 07:30N 21°01' E 110°44'4 7.0
2017-Nov-08 06:59N 21°03' E 110°41'611.5
2017-Nov-08 06:30N 21°04' E 110°35'511.1
2017-Nov-08 06:00N 21°05' E 110°29'5 9.5
2017-Nov-08 05:30N 21°08' E 110°25'1 1.6
2017-Nov-08 05:00N 21°08' E 110°24'0 0.0
2017-Nov-08 04:25N 21°08' E 110°24'0 0.0
2017-Nov-08 03:58N 21°08' E 110°24'0 0.0
2017-Nov-08 03:28N 21°08' E 110°24'0 0.0
2017-Nov-08 02:58N 21°08' E 110°24'0 0.0
2017-Nov-08 02:28N 21°08' E 110°24'0 0.0
2017-Nov-08 01:58N 21°08' E 110°24'0 0.0
2017-Nov-08 01:19N 21°08' E 110°24'0 0.0
2017-Nov-08 00:52N 21°08' E 110°24'0 0.0
2017-Nov-08 00:28N 21°08' E 110°24'0 0.0
2017-Nov-07 23:55N 21°08' E 110°24'0 0.0
2017-Nov-07 23:28N 21°08' E 110°24'0 0.0
2017-Nov-07 22:55N 21°08' E 110°24'0 0.0
2017-Nov-07 22:19N 21°08' E 110°24'0 0.0
2017-Nov-07 21:52N 21°08' E 110°24'0 0.0
2017-Nov-07 21:22N 21°08' E 110°24'0 0.0
2017-Nov-07 20:55N 21°08' E 110°24'0 0.0
2017-Nov-07 20:28N 21°08' E 110°24'0 0.0
2017-Nov-07 19:58N 21°08' E 110°24'0 0.0
2017-Nov-07 19:25N 21°08' E 110°24'0 0.0
2017-Nov-07 18:58N 21°08' E 110°24'0 0.0
2017-Nov-07 18:28N 21°08' E 110°24'0 0.0
2017-Nov-07 17:58N 21°08' E 110°24'0 0.0
2017-Nov-07 17:25N 21°08' E 110°24'0 0.0
2017-Nov-07 16:58N 21°08' E 110°24'0 0.0
2017-Nov-07 16:28N 21°08' E 110°24'0 0.0
2017-Nov-07 15:58N 21°08' E 110°24'0 0.0
2017-Nov-07 15:22N 21°08' E 110°24'0 0.0
2017-Nov-07 14:55N 21°08' E 110°24'0 0.0
2017-Nov-07 14:22N 21°08' E 110°24'0 0.0
2017-Nov-07 13:52N 21°08' E 110°24'0 0.0
2017-Nov-07 13:25N 21°08' E 110°24'0 0.0
2017-Nov-07 12:58N 21°08' E 110°24'0 0.0
2017-Nov-07 12:28N 21°08' E 110°24'0 0.0
2017-Nov-07 11:55N 21°08' E 110°24'0 0.0
2017-Nov-07 11:19N 21°08' E 110°24'0 0.0
2017-Nov-07 10:49N 21°08' E 110°24'0 0.0
2017-Nov-07 10:30N 21°08' E 110°24'0 0.0
2017-Nov-07 09:55N 21°08' E 110°24'0 0.0
2017-Nov-07 09:25N 21°08' E 110°24'0 0.0
2017-Nov-07 08:58N 21°08' E 110°24'0 0.0
2017-Nov-07 08:28N 21°08' E 110°24'0 0.0
2017-Nov-07 07:58N 21°08' E 110°24'0 0.0
2017-Nov-07 07:30N 21°08' E 110°24'0 0.0
2017-Nov-07 06:58N 21°08' E 110°24'0 0.0
2017-Nov-07 06:28N 21°08' E 110°24'0 0.0
2017-Nov-07 05:58N 21°08' E 110°24'0 0.0
2017-Nov-07 05:28N 21°08' E 110°24'0 0.0
2017-Nov-07 04:55N 21°08' E 110°24'0 0.0
2017-Nov-07 04:28N 21°08' E 110°24'0 0.0
2017-Nov-07 03:37N 21°08' E 110°24'0 0.0
2017-Nov-07 03:25N 21°08' E 110°24'0 0.0
2017-Nov-07 02:58N 21°08' E 110°24'0 0.0
2017-Nov-07 02:25N 21°08' E 110°24'0 0.0
2017-Nov-07 01:58N 21°08' E 110°24'0 0.0
2017-Nov-07 01:28N 21°08' E 110°24'0 0.0
2017-Nov-07 01:00N 21°08' E 110°24'0 0.0
2017-Nov-07 00:31N 21°08' E 110°24'0 0.0
2017-Nov-07 00:01N 21°08' E 110°24'0 0.1
2017-Nov-06 23:30N 21°08' E 110°24'1 1.0
2017-Nov-06 23:00N 21°08' E 110°25'2 4.6
2017-Nov-06 22:30N 21°06' E 110°26'4 7.1
2017-Nov-06 22:00N 21°05' E 110°30'5 9.1
2017-Nov-06 21:30N 21°04' E 110°35'5 9.5
2017-Nov-06 21:00N 21°03' E 110°40'510.8
2017-Nov-06 20:30N 21°02' E 110°45'12 0.5
2017-Nov-05 19:48N 20°58' E 110°57'1 4.0
2017-Nov-05 19:28N 20°57' E 110°57'  
Track history (hours):
 
Tides and Currents Weather Stations Pressure Air Temp Water Temp Dewpoint Dewpoint Depression Visibility Wind Speed Wind Dir Waves Ship Positions

Ormond

Last reported at 2017-Nov-12 14:35 UTC. Time now 2017-Nov-19 01:26 UTC.
Position N 31°02' E 123°01'.

Length 292 m; draft 11.4 m.

Type: Cargo ship. MMSI: 636017319.

Date/timePositionNaut miles runAvg speedWind from/ knotsBaromVisibWave heightAir tempDewpointWater temp
2017-Nov-12 14:35N 31°02' E 123°01'211.2
2017-Nov-12 14:24N 31°03' E 123°03'  
2017-Nov-09 05:19N 21°36' E 114°25'51 8.5
2017-Nov-08 23:22N 21°24' E 113°32'4 9.4
2017-Nov-08 22:59N 21°23' E 113°29'5 9.4
2017-Nov-08 22:30N 21°22' E 113°24'5 9.6
2017-Nov-08 21:59N 21°21' E 113°19'5 9.8
2017-Nov-08 21:29N 21°21' E 113°13'5 9.9
2017-Nov-08 21:00N 21°20' E 113°08'5 9.9
2017-Nov-08 20:29N 21°19' E 113°03'610.0
2017-Nov-08 19:53N 21°18' E 112°56'410.1
2017-Nov-08 19:30N 21°18' E 112°52'11810.1
2017-Nov-08 07:54N 21°00' E 110°48'3 8.3
2017-Nov-08 07:30N 21°01' E 110°44'4 7.0
2017-Nov-08 06:59N 21°03' E 110°41'611.5
2017-Nov-08 06:30N 21°04' E 110°35'511.1
2017-Nov-08 06:00N 21°05' E 110°29'5 9.5
2017-Nov-08 05:30N 21°08' E 110°25'1 1.6
2017-Nov-08 05:00N 21°08' E 110°24'0 0.0
2017-Nov-08 04:25N 21°08' E 110°24'0 0.0
2017-Nov-08 03:58N 21°08' E 110°24'0 0.0
2017-Nov-08 03:28N 21°08' E 110°24'0 0.0
2017-Nov-08 02:58N 21°08' E 110°24'0 0.0
2017-Nov-08 02:28N 21°08' E 110°24'0 0.0
2017-Nov-08 01:58N 21°08' E 110°24'0 0.0
2017-Nov-08 01:19N 21°08' E 110°24'0 0.0
2017-Nov-08 00:52N 21°08' E 110°24'0 0.0
2017-Nov-08 00:28N 21°08' E 110°24'0 0.0
2017-Nov-07 23:55N 21°08' E 110°24'0 0.0
2017-Nov-07 23:28N 21°08' E 110°24'0 0.0
2017-Nov-07 22:55N 21°08' E 110°24'0 0.0
2017-Nov-07 22:19N 21°08' E 110°24'0 0.0
2017-Nov-07 21:52N 21°08' E 110°24'0 0.0
2017-Nov-07 21:22N 21°08' E 110°24'0 0.0
2017-Nov-07 20:55N 21°08' E 110°24'0 0.0
2017-Nov-07 20:28N 21°08' E 110°24'0 0.0
2017-Nov-07 19:58N 21°08' E 110°24'0 0.0
2017-Nov-07 19:25N 21°08' E 110°24'0 0.0
2017-Nov-07 18:58N 21°08' E 110°24'0 0.0
2017-Nov-07 18:28N 21°08' E 110°24'0 0.0
2017-Nov-07 17:58N 21°08' E 110°24'0 0.0
2017-Nov-07 17:25N 21°08' E 110°24'0 0.0
2017-Nov-07 16:58N 21°08' E 110°24'0 0.0
2017-Nov-07 16:28N 21°08' E 110°24'0 0.0
2017-Nov-07 15:58N 21°08' E 110°24'0 0.0
2017-Nov-07 15:22N 21°08' E 110°24'0 0.0
2017-Nov-07 14:55N 21°08' E 110°24'0 0.0
2017-Nov-07 14:22N 21°08' E 110°24'0 0.0
2017-Nov-07 13:52N 21°08' E 110°24'0 0.0
2017-Nov-07 13:25N 21°08' E 110°24'0 0.0
2017-Nov-07 12:58N 21°08' E 110°24'0 0.0
2017-Nov-07 12:28N 21°08' E 110°24'0 0.0
2017-Nov-07 11:55N 21°08' E 110°24'0 0.0
2017-Nov-07 11:19N 21°08' E 110°24'0 0.0
2017-Nov-07 10:49N 21°08' E 110°24'0 0.0
2017-Nov-07 10:30N 21°08' E 110°24'0 0.0
2017-Nov-07 09:55N 21°08' E 110°24'0 0.0
2017-Nov-07 09:25N 21°08' E 110°24'0 0.0
2017-Nov-07 08:58N 21°08' E 110°24'0 0.0
2017-Nov-07 08:28N 21°08' E 110°24'0 0.0
2017-Nov-07 07:58N 21°08' E 110°24'0 0.0
2017-Nov-07 07:30N 21°08' E 110°24'0 0.0
2017-Nov-07 06:58N 21°08' E 110°24'0 0.0
2017-Nov-07 06:28N 21°08' E 110°24'0 0.0
2017-Nov-07 05:58N 21°08' E 110°24'0 0.0
2017-Nov-07 05:28N 21°08' E 110°24'0 0.0
2017-Nov-07 04:55N 21°08' E 110°24'0 0.0
2017-Nov-07 04:28N 21°08' E 110°24'0 0.0
2017-Nov-07 03:37N 21°08' E 110°24'0 0.0
2017-Nov-07 03:25N 21°08' E 110°24'0 0.0
2017-Nov-07 02:58N 21°08' E 110°24'0 0.0
2017-Nov-07 02:25N 21°08' E 110°24'0 0.0
2017-Nov-07 01:58N 21°08' E 110°24'0 0.0
2017-Nov-07 01:28N 21°08' E 110°24'0 0.0
2017-Nov-07 01:00N 21°08' E 110°24'0 0.0
2017-Nov-07 00:31N 21°08' E 110°24'0 0.0
2017-Nov-07 00:01N 21°08' E 110°24'0 0.1
2017-Nov-06 23:30N 21°08' E 110°24'1 1.0
2017-Nov-06 23:00N 21°08' E 110°25'2 4.6
2017-Nov-06 22:30N 21°06' E 110°26'4 7.1
2017-Nov-06 22:00N 21°05' E 110°30'5 9.1
2017-Nov-06 21:30N 21°04' E 110°35'5 9.5
2017-Nov-06 21:00N 21°03' E 110°40'510.8
2017-Nov-06 20:30N 21°02' E 110°45'12 0.5
2017-Nov-05 19:48N 20°58' E 110°57'1 4.0
2017-Nov-05 19:28N 20°57' E 110°57'  

Dump ship's entire track history